createdAt,value
2022-11-04T00:02:15.009Z,16.13
2022-11-04T00:04:42.535Z,12.47
2022-11-04T00:07:29.783Z,12.53
2022-11-04T00:09:57.479Z,12.47
2022-11-04T00:12:27.721Z,13.13
2022-11-04T00:15:15.075Z,11.67
2022-11-04T00:17:42.301Z,11.53
2022-11-04T00:20:28.239Z,16.03
2022-11-04T00:23:13.970Z,13.70
2022-11-04T00:25:59.802Z,13.73
2022-11-04T00:28:45.070Z,12.27
2022-11-04T00:31:31.489Z,13.57
2022-11-04T00:33:59.563Z,12.63
2022-11-04T00:36:27.366Z,14.23
2022-11-04T00:38:54.950Z,11.73
2022-11-04T00:41:29.075Z,13.83
2022-11-04T00:44:01.497Z,14.23
2022-11-04T00:46:30.791Z,12.17
2022-11-04T00:48:58.343Z,15.50
2022-11-04T00:51:26.804Z,14.97
2022-11-04T00:53:54.444Z,13.13
2022-11-04T00:56:21.882Z,10.97
2022-11-04T00:58:50.510Z,11.83
2022-11-04T01:01:19.192Z,12.87
2022-11-04T01:03:51.694Z,13.23
2022-11-04T01:06:20.401Z,14.37
2022-11-04T01:08:48.267Z,13.70
2022-11-04T01:11:17.107Z,14.10
2022-11-04T01:13:44.388Z,14.63
2022-11-04T01:16:13.421Z,12.23
2022-11-04T01:18:41.374Z,12.57
2022-11-04T01:21:11.685Z,13.43
2022-11-04T01:23:39.644Z,15.33
2022-11-04T01:26:08.127Z,13.03
2022-11-04T01:28:35.901Z,14.07
2022-11-04T01:31:11.202Z,13.63
2022-11-04T01:33:39.206Z,18.23
2022-11-04T01:36:07.986Z,15.07
2022-11-04T01:38:35.425Z,12.37
2022-11-04T01:41:02.923Z,13.07
2022-11-04T01:44:12.262Z,13.37
2022-11-04T01:46:51.121Z,12.40
2022-11-04T01:49:24.270Z,11.33
2022-11-04T01:51:55.264Z,16.37
2022-11-04T01:54:22.591Z,15.50
2022-11-04T01:56:50.349Z,15.30
2022-11-04T01:59:24.733Z,15.17
2022-11-04T02:01:52.309Z,12.87
2022-11-04T02:04:25.739Z,14.57
2022-11-04T02:07:07.749Z,18.63
2022-11-04T02:09:36.474Z,13.20
2022-11-04T02:12:22.656Z,17.40
2022-11-04T02:14:51.706Z,11.87
2022-11-04T02:17:19.471Z,13.63
2022-11-04T02:20:16.610Z,16.10
2022-11-04T02:22:43.845Z,11.20
2022-11-04T02:25:28.661Z,11.93
2022-11-04T02:28:23.207Z,14.20
2022-11-04T02:30:58.305Z,13.57
2022-11-04T02:33:28.616Z,11.63
2022-11-04T02:36:18.669Z,11.70
2022-11-04T02:38:58.147Z,13.30
2022-11-04T02:41:40.654Z,12.07
2022-11-04T02:44:16.840Z,13.40
2022-11-04T02:46:53.366Z,14.90
2022-11-04T02:49:27.936Z,13.20
2022-11-04T02:52:25.639Z,15.13
2022-11-04T02:55:01.902Z,12.60
2022-11-04T02:57:36.457Z,10.43
2022-11-04T03:00:08.115Z,11.67
2022-11-04T03:02:53.495Z,13.17
2022-11-04T03:05:27.270Z,14.53
2022-11-04T03:07:59.040Z,13.90
2022-11-04T03:10:32.867Z,17.53
2022-11-04T03:13:15.946Z,13.93
2022-11-04T03:15:52.463Z,12.33
2022-11-04T03:18:53.459Z,16.77
2022-11-04T03:21:22.214Z,11.60
2022-11-04T03:23:49.524Z,16.47
2022-11-04T03:26:30.305Z,14.07
2022-11-04T03:29:12.146Z,15.03
2022-11-04T03:31:58.679Z,14.93
2022-11-04T03:34:26.089Z,13.20
2022-11-04T03:36:53.703Z,14.57
2022-11-04T03:39:20.978Z,12.47
2022-11-04T03:41:57.056Z,15.10
2022-11-04T03:44:25.478Z,12.07
2022-11-04T03:46:56.699Z,16.30
2022-11-04T03:49:25.234Z,12.03
2022-11-04T03:51:53.103Z,14.13
2022-11-04T03:54:20.855Z,10.70
2022-11-04T03:57:15.901Z,12.00
2022-11-04T04:00:07.878Z,15.57
2022-11-04T04:02:53.246Z,12.13
2022-11-04T04:05:34.493Z,11.90
2022-11-04T04:08:31.000Z,13.77
2022-11-04T04:11:41.948Z,13.43
2022-11-04T04:14:41.992Z,15.57
2022-11-04T04:17:18.381Z,17.07
2022-11-04T04:19:58.007Z,13.33
2022-11-04T04:22:30.778Z,14.10
2022-11-04T04:25:20.578Z,12.80
2022-11-04T04:27:49.879Z,19.63
2022-11-04T04:30:18.184Z,14.87
2022-11-04T04:32:49.616Z,12.60
2022-11-04T04:35:38.867Z,12.43
2022-11-04T04:38:27.105Z,33.43
2022-11-04T04:41:47.178Z,23.43
2022-11-04T04:44:47.007Z,16.80
2022-11-04T04:47:24.433Z,51.57
2022-11-04T04:49:56.458Z,22.33
2022-11-04T04:52:27.166Z,22.47
2022-11-04T04:54:54.467Z,16.27
2022-11-04T04:57:21.786Z,12.47
2022-11-04T04:59:49.059Z,14.27
2022-11-04T05:02:16.625Z,13.37
2022-11-04T05:04:44.093Z,14.40
2022-11-04T05:07:11.438Z,13.20
2022-11-04T05:09:39.071Z,12.00
2022-11-04T05:12:06.622Z,14.30
2022-11-04T05:14:34.048Z,12.07
2022-11-04T05:17:01.460Z,13.83
2022-11-04T05:19:28.912Z,20.03
2022-11-04T05:21:56.282Z,15.40
2022-11-04T05:24:23.623Z,16.93
2022-11-04T05:26:50.848Z,15.20
2022-11-04T05:29:18.195Z,17.10
2022-11-04T05:31:45.462Z,14.60
2022-11-04T05:34:13.620Z,16.90
2022-11-04T05:36:41.826Z,17.57
2022-11-04T05:39:13.138Z,15.73
2022-11-04T05:41:41.260Z,21.73
2022-11-04T05:44:10.153Z,18.23
2022-11-04T05:46:37.526Z,23.63
2022-11-04T05:49:05.330Z,16.63
2022-11-04T05:51:33.202Z,24.57
2022-11-04T05:54:01.977Z,20.00
2022-11-04T05:56:29.347Z,17.00
2022-11-04T05:58:56.721Z,20.20
2022-11-04T06:01:31.277Z,19.77
2022-11-04T06:03:59.907Z,16.87
2022-11-04T06:06:31.378Z,17.37
2022-11-04T06:08:59.431Z,18.73
2022-11-04T06:11:28.523Z,19.50
2022-11-04T06:13:56.944Z,22.00
2022-11-04T06:16:24.970Z,19.80
2022-11-04T06:18:53.050Z,20.43
2022-11-04T06:21:30.864Z,24.93
2022-11-04T06:23:59.235Z,19.03
2022-11-04T06:26:28.690Z,24.70
2022-11-04T06:28:57.098Z,23.67
2022-11-04T06:31:24.643Z,25.60
2022-11-04T06:33:51.936Z,25.43
2022-11-04T06:36:19.239Z,25.27
2022-11-04T06:38:46.557Z,25.40
2022-11-04T06:41:16.731Z,26.37
2022-11-04T06:43:46.908Z,28.43
2022-11-04T06:46:36.075Z,21.13
2022-11-04T06:49:05.248Z,38.30
2022-11-04T06:51:32.981Z,35.10
2022-11-04T06:54:00.469Z,20.13
2022-11-04T06:56:27.747Z,22.00
2022-11-04T06:58:56.171Z,19.47
2022-11-04T07:01:26.523Z,20.17
2022-11-04T07:03:56.785Z,19.73
2022-11-04T07:06:24.873Z,29.23
2022-11-04T07:08:53.750Z,28.97
2022-11-04T07:11:22.860Z,20.10
2022-11-04T07:13:50.560Z,22.33
2022-11-04T07:16:19.087Z,21.73
2022-11-04T07:18:46.461Z,22.93
2022-11-04T07:21:15.737Z,21.67
2022-11-04T07:23:43.545Z,22.63
2022-11-04T07:26:12.433Z,20.87
2022-11-04T07:28:40.644Z,33.13
2022-11-04T07:31:09.505Z,24.10
2022-11-04T07:33:36.850Z,18.83
2022-11-04T07:36:06.616Z,21.33
2022-11-04T07:38:34.032Z,24.10
2022-11-04T07:41:02.692Z,22.23
2022-11-04T07:43:31.025Z,23.03
2022-11-04T07:46:07.597Z,22.53
2022-11-04T07:48:35.429Z,20.87
2022-11-04T07:51:04.258Z,22.57
2022-11-04T07:53:31.664Z,21.77
2022-11-04T07:55:59.715Z,26.63
2022-11-04T07:58:27.184Z,22.50
2022-11-04T08:01:03.067Z,26.40
2022-11-04T08:03:30.339Z,26.37
2022-11-04T08:06:03.012Z,30.20
2022-11-04T08:08:30.938Z,23.13
2022-11-04T08:11:01.291Z,25.37
2022-11-04T08:13:33.519Z,27.67
2022-11-04T08:16:22.271Z,24.80
2022-11-04T08:18:52.446Z,24.63
2022-11-04T08:21:21.078Z,26.10
2022-11-04T08:23:48.525Z,23.87
2022-11-04T08:26:17.946Z,24.87
2022-11-04T08:28:45.853Z,22.70
2022-11-04T08:31:17.698Z,23.67
2022-11-04T08:33:45.326Z,26.03
2022-11-04T08:36:21.716Z,26.43
2022-11-04T08:38:49.457Z,25.20
2022-11-04T08:41:20.234Z,27.40
2022-11-04T08:43:48.122Z,29.87
2022-11-04T08:46:16.045Z,25.33
2022-11-04T08:48:44.224Z,23.87
2022-11-04T08:51:21.128Z,40.00
2022-11-04T08:53:48.701Z,44.17
2022-11-04T08:56:22.379Z,48.30
2022-11-04T08:58:50.109Z,21.33
2022-11-04T09:01:19.149Z,23.73
2022-11-04T09:03:47.188Z,22.03
2022-11-04T09:06:19.809Z,18.60
2022-11-04T09:08:47.277Z,26.63
2022-11-04T09:11:16.440Z,21.10
2022-11-04T09:13:45.478Z,17.90
2022-11-04T09:16:14.562Z,19.63
2022-11-04T09:18:43.173Z,17.87
2022-11-04T09:21:11.355Z,17.50
2022-11-04T09:23:39.156Z,17.03
2022-11-04T09:26:12.671Z,20.83
2022-11-04T09:28:40.802Z,17.30
2022-11-04T09:31:10.289Z,18.20
2022-11-04T09:33:38.053Z,17.67
2022-11-04T09:36:05.780Z,16.97
2022-11-04T09:38:33.113Z,13.07
2022-11-04T09:41:01.088Z,13.23
2022-11-04T09:43:28.287Z,13.20
2022-11-04T09:45:57.285Z,16.73
2022-11-04T09:48:31.014Z,12.77
2022-11-04T09:51:01.650Z,11.83
2022-11-04T09:53:53.274Z,13.17
2022-11-04T09:56:32.747Z,13.00
2022-11-04T09:59:00.032Z,10.47
2022-11-04T10:01:31.160Z,9.33
2022-11-04T10:04:28.486Z,11.10
2022-11-04T10:07:19.551Z,13.63
2022-11-04T10:09:59.060Z,12.27
2022-11-04T10:12:49.516Z,13.87
2022-11-04T10:15:35.633Z,10.47
2022-11-04T10:18:31.757Z,9.33
2022-11-04T10:21:32.696Z,11.27
2022-11-04T10:24:14.807Z,10.30
2022-11-04T10:26:46.411Z,10.37
2022-11-04T10:29:20.961Z,10.40
2022-11-04T10:31:48.630Z,10.53
2022-11-04T10:35:15.682Z,10.10
2022-11-04T10:37:43.423Z,12.53
2022-11-04T10:40:39.068Z,9.70
2022-11-04T10:43:10.893Z,9.70
2022-11-04T10:46:03.358Z,6.93
2022-11-04T10:48:43.810Z,7.93
2022-11-04T10:51:11.199Z,276.33
2022-11-04T10:53:38.565Z,30.47
2022-11-04T10:56:21.160Z,13.03
2022-11-04T10:58:49.602Z,16.33
2022-11-04T11:01:30.419Z,12.67
2022-11-04T11:03:58.607Z,7.57
2022-11-04T11:06:30.437Z,8.17
2022-11-04T11:09:01.669Z,6.97
2022-11-04T11:11:39.647Z,6.57
2022-11-04T11:14:18.184Z,7.10
2022-11-04T11:16:46.112Z,6.37
2022-11-04T11:19:17.838Z,25.67
2022-11-04T11:21:50.971Z,42.73
2022-11-04T11:24:27.076Z,52.90
2022-11-04T11:26:58.019Z,23.23
2022-11-04T11:29:27.617Z,7.90
2022-11-04T11:31:56.764Z,7.57
2022-11-04T11:34:28.789Z,7.37
2022-11-04T11:36:58.101Z,7.60
2022-11-04T11:39:29.393Z,6.73
2022-11-04T11:42:07.539Z,14.03
2022-11-04T11:45:10.826Z,7.30
2022-11-04T11:47:42.350Z,7.30
2022-11-04T11:50:26.495Z,7.87
2022-11-04T11:52:54.405Z,7.00
2022-11-04T11:55:29.148Z,6.80
2022-11-04T12:01:28.796Z,14.47
2022-11-04T12:09:54.830Z,11.63
2022-11-04T12:12:39.162Z,21.07
2022-11-04T12:15:19.104Z,21.27
2022-11-04T12:18:07.574Z,22.27
2022-11-04T12:20:53.653Z,23.27
2022-11-04T12:23:42.921Z,33.70
2022-11-04T12:26:18.538Z,67.30
2022-11-04T12:28:57.406Z,36.70
2022-11-04T12:31:50.987Z,40.60
2022-11-04T12:34:49.615Z,29.57
2022-11-04T12:37:52.510Z,25.50
2022-11-04T12:40:28.815Z,44.30
2022-11-04T12:43:19.364Z,20.83
2022-11-04T12:46:01.357Z,11.93
2022-11-04T12:48:38.466Z,16.30
2022-11-04T12:51:25.059Z,14.13
2022-11-04T12:54:32.969Z,12.30
2022-11-04T12:57:25.749Z,18.00
2022-11-04T13:00:08.793Z,14.97
2022-11-04T13:02:48.853Z,26.80
2022-11-04T13:05:22.186Z,24.87
2022-11-04T13:08:08.678Z,14.13
2022-11-04T13:11:00.010Z,16.57
2022-11-04T13:13:38.213Z,13.33
2022-11-04T13:16:10.976Z,12.33
2022-11-04T13:18:41.057Z,13.30
2022-11-04T13:21:14.797Z,12.50
2022-11-04T13:24:05.291Z,10.53
2022-11-04T13:26:33.356Z,15.33
2022-11-04T13:29:09.096Z,13.10
2022-11-04T13:31:52.078Z,7.13
2022-11-04T13:34:34.280Z,7.77
2022-11-04T13:37:26.540Z,15.20
2022-11-04T13:40:18.320Z,14.90
2022-11-04T13:43:16.834Z,11.07
2022-11-04T13:45:53.217Z,11.37
2022-11-04T13:48:27.027Z,11.90
2022-11-04T13:51:05.537Z,12.43
2022-11-04T13:53:52.174Z,11.30
2022-11-04T13:56:40.111Z,16.37
2022-11-04T13:59:22.799Z,13.97
2022-11-04T14:02:10.133Z,20.27
2022-11-04T14:04:48.045Z,10.03
2022-11-04T14:07:18.262Z,18.13
2022-11-04T14:09:45.494Z,13.63
2022-11-04T14:12:19.059Z,16.43
2022-11-04T14:14:47.362Z,21.30
2022-11-04T14:17:33.867Z,17.17
2022-11-04T14:20:06.291Z,21.07
2022-11-04T14:22:57.066Z,19.80
2022-11-04T14:25:32.763Z,19.47
2022-11-04T14:28:03.189Z,20.07
2022-11-04T14:30:43.219Z,12.87
2022-11-04T14:33:31.870Z,10.60
2022-11-04T14:36:20.853Z,15.03
2022-11-04T14:39:13.105Z,11.37
2022-11-04T14:41:40.397Z,20.27
2022-11-04T14:44:18.713Z,19.77
2022-11-04T14:46:48.790Z,24.97
2022-11-04T14:49:40.969Z,22.60
2022-11-04T14:52:44.881Z,14.13
2022-11-04T14:55:12.073Z,15.47
2022-11-04T14:57:44.944Z,23.60
2022-11-04T15:00:50.264Z,38.50
2022-11-04T15:04:09.420Z,26.53
2022-11-04T15:06:34.895Z,21.63
2022-11-04T15:09:27.084Z,28.83
2022-11-04T15:12:28.227Z,22.93
2022-11-04T15:14:56.747Z,31.70
2022-11-04T15:17:28.640Z,56.90
2022-11-04T15:20:07.914Z,52.47
2022-11-04T15:22:37.582Z,28.90
2022-11-04T15:25:06.190Z,35.37
2022-11-04T15:27:38.738Z,21.50
2022-11-04T15:30:24.157Z,27.17
2022-11-04T15:33:00.366Z,26.40
2022-11-04T15:35:30.974Z,30.10
2022-11-04T15:38:01.959Z,28.10
2022-11-04T15:40:31.033Z,25.20
2022-11-04T15:43:02.329Z,22.70
2022-11-04T15:45:36.402Z,28.03
2022-11-04T15:48:28.509Z,18.60
2022-11-04T15:51:01.760Z,17.10
2022-11-04T15:53:29.189Z,16.67
2022-11-04T15:55:57.711Z,19.90
2022-11-04T15:58:26.087Z,22.67
2022-11-04T16:00:55.316Z,25.83
2022-11-04T16:03:24.999Z,27.83
2022-11-04T16:06:07.304Z,27.23
2022-11-04T16:08:34.803Z,31.53
2022-11-04T16:11:17.420Z,45.17
2022-11-04T16:13:45.888Z,45.70
2022-11-04T16:16:28.847Z,48.33
2022-11-04T16:18:59.581Z,45.37
2022-11-04T16:21:27.904Z,35.00
2022-11-04T16:24:03.400Z,27.57
2022-11-04T16:26:37.856Z,20.20
2022-11-04T16:29:09.805Z,18.43
2022-11-04T16:31:38.033Z,19.00
2022-11-04T16:34:10.374Z,22.13
2022-11-04T16:36:38.636Z,18.83
2022-11-04T16:39:09.746Z,20.23
2022-11-04T16:41:39.700Z,25.60
2022-11-04T16:44:19.191Z,25.77
2022-11-04T16:46:46.835Z,30.63
2022-11-04T16:49:16.831Z,24.70
2022-11-04T16:51:44.859Z,22.13
2022-11-04T16:54:12.307Z,28.73
2022-11-04T16:56:40.606Z,31.40
2022-11-04T16:59:11.870Z,39.50
2022-11-04T17:01:42.786Z,38.93
2022-11-04T17:04:10.266Z,39.20
2022-11-04T17:06:38.489Z,48.53
2022-11-04T17:09:20.043Z,42.57
2022-11-04T17:11:47.665Z,35.00
2022-11-04T17:14:16.700Z,34.27
2022-11-04T17:16:44.754Z,52.13
2022-11-04T17:19:16.852Z,71.47
2022-11-04T17:21:45.599Z,61.03
2022-11-04T17:24:13.405Z,371.77
2022-11-04T17:26:41.544Z,97.67
2022-11-04T17:29:12.885Z,40.43
2022-11-04T17:31:43.677Z,55.50
2022-11-04T17:34:11.365Z,59.07
2022-11-04T17:36:38.996Z,35.83
2022-11-04T17:39:06.237Z,34.47
2022-11-04T17:41:52.232Z,28.93
2022-11-04T17:44:19.678Z,30.67
2022-11-04T17:46:49.345Z,28.53
2022-11-04T17:49:20.107Z,34.47
2022-11-04T17:51:54.796Z,40.33
2022-11-04T17:54:24.134Z,77.10
2022-11-04T17:56:51.519Z,99.73
2022-11-04T17:59:19.100Z,101.00
2022-11-04T18:01:47.526Z,78.40
2022-11-04T18:04:17.514Z,100.70
2022-11-04T18:06:45.521Z,217.93
2022-11-04T18:09:13.409Z,129.80
2022-11-04T18:11:59.566Z,126.10
2022-11-04T18:14:26.930Z,200.93
2022-11-04T18:16:54.256Z,208.17
2022-11-04T18:19:23.359Z,169.23
2022-11-04T18:21:51.534Z,193.43
2022-11-04T18:24:19.635Z,90.13
2022-11-04T18:26:46.958Z,168.37
2022-11-04T18:29:14.860Z,127.00
2022-11-04T18:31:48.735Z,115.13
2022-11-04T18:34:19.831Z,96.50
2022-11-04T18:36:48.774Z,122.53
2022-11-04T18:39:17.991Z,103.20
2022-11-04T18:41:46.110Z,97.50
2022-11-04T18:44:17.211Z,86.07
2022-11-04T18:46:45.084Z,82.27
2022-11-04T18:49:13.523Z,70.33
2022-11-04T18:51:41.526Z,89.40
2022-11-04T18:54:10.639Z,58.07
2022-11-04T18:56:38.081Z,51.73
2022-11-04T18:59:08.644Z,56.07
2022-11-04T19:01:36.557Z,70.83
2022-11-04T19:04:04.131Z,86.00
2022-11-04T19:06:39.488Z,86.03
2022-11-04T19:09:32.449Z,81.87
2022-11-04T19:12:16.965Z,76.93
2022-11-04T19:14:44.582Z,71.40
2022-11-04T19:17:11.907Z,78.63
2022-11-04T19:19:40.401Z,74.37
2022-11-04T19:22:08.288Z,75.13
2022-11-04T19:24:35.714Z,141.37
2022-11-04T19:27:03.054Z,134.03
2022-11-04T19:29:30.958Z,95.00
2022-11-04T19:31:58.181Z,91.37
2022-11-04T19:34:25.847Z,102.60
2022-11-04T19:36:53.222Z,115.53
2022-11-04T19:39:20.627Z,104.90
2022-11-04T19:42:06.241Z,99.87
2022-11-04T19:44:33.694Z,89.73
2022-11-04T19:47:04.343Z,96.77
2022-11-04T19:49:31.895Z,111.43
2022-11-04T19:52:00.258Z,81.37
2022-11-04T19:54:29.044Z,81.20
2022-11-04T19:56:56.875Z,96.20
2022-11-04T19:59:24.583Z,94.80
2022-11-04T20:01:52.152Z,78.63
2022-11-04T20:04:19.604Z,56.97
2022-11-04T20:06:46.997Z,70.30
2022-11-04T20:09:15.015Z,67.63
2022-11-04T20:12:01.001Z,79.93
2022-11-04T20:14:29.145Z,65.07
2022-11-04T20:16:56.626Z,64.53
2022-11-04T20:19:24.275Z,63.93
2022-11-04T20:21:51.620Z,55.10
2022-11-04T20:24:18.951Z,43.63
2022-11-04T20:26:49.529Z,43.07
2022-11-04T20:29:17.204Z,106.90
2022-11-04T20:31:45.451Z,160.70
2022-11-04T20:34:14.641Z,97.93
2022-11-04T20:36:42.916Z,71.13
2022-11-04T20:39:16.134Z,108.87
2022-11-04T20:41:44.784Z,75.77
2022-11-04T20:44:13.871Z,76.87
2022-11-04T20:46:42.181Z,81.63
2022-11-04T20:49:09.835Z,71.70
2022-11-04T20:51:42.627Z,84.40
2022-11-04T20:54:12.434Z,78.00
2022-11-04T20:56:41.762Z,71.70
2022-11-04T20:59:10.016Z,68.53
2022-11-04T21:01:39.959Z,75.13
2022-11-04T21:04:11.733Z,84.57
2022-11-04T21:06:39.999Z,79.57
2022-11-04T21:09:10.390Z,83.70
2022-11-04T21:11:39.394Z,78.20
2022-11-04T21:14:08.772Z,84.13
2022-11-04T21:16:36.629Z,92.73
2022-11-04T21:19:05.125Z,85.17
2022-11-04T21:21:33.486Z,83.63
2022-11-04T21:24:04.456Z,133.43
2022-11-04T21:26:34.385Z,90.83
2022-11-04T21:29:06.637Z,100.50
2022-11-04T21:31:36.000Z,96.47
2022-11-04T21:34:04.034Z,85.00
2022-11-04T21:36:32.421Z,85.07
2022-11-04T21:39:00.052Z,80.23
2022-11-04T21:41:29.658Z,72.50
2022-11-04T21:43:59.304Z,67.73
2022-11-04T21:46:28.397Z,67.77
2022-11-04T21:48:56.209Z,66.50
2022-11-04T21:51:26.852Z,66.63
2022-11-04T21:53:54.057Z,70.47
2022-11-04T21:56:27.070Z,66.17
2022-11-04T21:58:55.474Z,61.10
2022-11-04T22:01:26.081Z,58.50
2022-11-04T22:03:56.456Z,63.10
2022-11-04T22:06:26.728Z,62.30
2022-11-04T22:08:58.051Z,59.90
2022-11-04T22:11:30.346Z,64.90
2022-11-04T22:14:00.077Z,55.83
2022-11-04T22:16:30.225Z,55.80
2022-11-04T22:19:00.439Z,46.37
2022-11-04T22:21:30.863Z,44.23
2022-11-04T22:23:59.702Z,42.07
2022-11-04T22:26:29.241Z,35.07
2022-11-04T22:28:57.514Z,33.50
2022-11-04T22:31:30.344Z,26.70
2022-11-04T22:33:58.450Z,25.27
2022-11-04T22:36:26.345Z,22.93
2022-11-04T22:38:53.665Z,20.07
2022-11-04T22:41:23.707Z,17.67
2022-11-04T22:43:51.164Z,15.37
2022-11-04T22:46:22.538Z,15.40
2022-11-04T22:48:49.773Z,16.17
2022-11-04T22:51:18.086Z,13.90
2022-11-04T22:53:48.955Z,14.80
2022-11-04T22:56:18.797Z,11.83
2022-11-04T22:58:46.087Z,13.17
2022-11-04T23:01:15.338Z,10.67
2022-11-04T23:03:43.558Z,11.77
2022-11-04T23:06:11.270Z,13.20
2022-11-04T23:08:40.394Z,9.97
2022-11-04T23:11:33.143Z,11.03
2022-11-04T23:14:21.112Z,10.33
2022-11-04T23:17:09.527Z,10.87
2022-11-04T23:19:37.760Z,12.33
2022-11-04T23:22:24.087Z,10.20
2022-11-04T23:25:07.325Z,12.63
2022-11-04T23:28:03.965Z,10.67
2022-11-04T23:30:37.088Z,10.30
2022-11-04T23:33:07.142Z,10.97
2022-11-04T23:36:02.066Z,13.87
2022-11-04T23:38:30.192Z,10.73
2022-11-04T23:41:19.902Z,11.50
2022-11-04T23:43:47.343Z,10.60
2022-11-04T23:46:36.570Z,12.43
2022-11-04T23:49:25.672Z,9.77
2022-11-04T23:52:11.502Z,10.27
2022-11-04T23:54:57.301Z,14.60
2022-11-04T23:57:42.809Z,19.10
